Time;durP1;ratioP1;P1;durP2;ratioP2;P2;SDS_P1;SDS_P2;PMS_P1;PMS_P2;Temp;Humidity;BMP_temperature;BMP_pressure;BME280_temperature;BME280_humidity;BME280_pressure;Samples;Min_cycle;Max_cycle;Signal;HPM_P1;HPM_P2
2023/06/12 06:04:46;;;;;;;1.00;1.00;;;19.70;56.30;;;;;;5071316;28;20394;-78
2023/06/12 06:07:13;;;;;;;0.98;0.88;;;19.70;56.40;;;;;;5034783;28;20069;-80
2023/06/12 06:09:39;;;;;;;3.67;0.98;;;19.70;56.40;;;;;;5034366;28;20375;-80
2023/06/12 06:12:05;;;;;;;1.00;1.00;;;19.70;56.50;;;;;;5016820;28;20033;-79
2023/06/12 06:14:31;;;;;;;1.02;1.00;;;19.70;56.60;;;;;;5016773;28;20033;-80
2023/06/12 06:16:56;;;;;;;1.77;1.00;;;19.70;56.70;;;;;;5034198;28;20029;-80
2023/06/12 06:19:22;;;;;;;1.00;1.00;;;19.70;56.70;;;;;;5034040;28;20032;-79
2023/06/12 06:21:47;;;;;;;2.63;1.20;;;19.80;56.80;;;;;;5038159;28;20463;-79
2023/06/12 06:24:13;;;;;;;1.75;1.10;;;19.80;56.70;;;;;;5036888;28;20463;-80
2023/06/12 06:26:39;;;;;;;1.40;1.13;;;19.70;56.70;;;;;;5016632;28;20034;-80
2023/06/12 06:29:05;;;;;;;1.10;1.00;;;19.80;56.80;;;;;;5034357;28;20364;-78
2023/06/12 06:31:30;;;;;;;1.50;1.17;;;19.80;56.80;;;;;;5034331;28;20029;-79
2023/06/12 06:33:56;;;;;;;1.15;0.88;;;19.80;56.70;;;;;;5034375;28;20114;-81
2023/06/12 06:36:23;;;;;;;2.83;1.13;;;19.80;56.80;;;;;;5034485;28;20459;-79
2023/06/12 06:38:48;;;;;;;2.50;1.27;;;19.80;56.80;;;;;;5016539;28;20025;-78
2023/06/12 06:41:14;;;;;;;1.10;1.00;;;19.80;56.90;;;;;;5034356;28;20459;-80
2023/06/12 06:43:40;;;;;;;1.35;1.00;;;19.80;56.90;;;;;;5034252;28;20029;-80
2023/06/12 06:46:06;;;;;;;1.13;1.10;;;20.00;56.90;;;;;;5016220;28;20038;-79
2023/06/12 06:48:31;;;;;;;2.10;1.30;;;20.00;56.70;;;;;;5033879;28;20029;-78
2023/06/12 06:50:57;;;;;;;1.33;1.15;;;20.10;56.70;;;;;;5033691;28;20514;-78
2023/06/12 06:53:23;;;;;;;1.75;1.10;;;20.10;56.60;;;;;;5016063;28;20031;-79
2023/06/12 06:55:49;;;;;;;1.67;0.80;;;20.20;56.60;;;;;;5034214;28;20045;-79
2023/06/12 06:58:14;;;;;;;1.00;1.00;;;20.30;56.50;;;;;;5033828;28;20428;-77
2023/06/12 07:00:40;;;;;;;1.35;1.00;;;20.30;56.50;;;;;;5033836;28;20127;-79
2023/06/12 07:03:06;;;;;;;1.45;1.00;;;20.40;56.60;;;;;;5016298;28;20471;-77
2023/06/12 07:05:32;;;;;;;1.70;1.10;;;20.50;56.50;;;;;;5033666;28;20049;-80
2023/06/12 07:07:58;;;;;;;1.25;1.15;;;20.60;56.40;;;;;;5033991;28;20463;-79
2023/06/12 07:10:23;;;;;;;1.17;1.08;;;20.60;56.30;;;;;;5033634;28;20025;-79
2023/06/12 07:12:56;;;;;;;0.90;0.90;;;20.60;56.20;;;;;;5034085;28;20129;-79
2023/06/12 07:15:22;;;;;;;2.47;1.20;;;20.60;56.40;;;;;;5037837;28;20031;-79
2023/06/12 07:17:47;;;;;;;1.60;1.40;;;20.50;56.30;;;;;;5037501;28;20104;-78
2023/06/12 07:20:13;;;;;;;1.23;1.00;;;20.40;56.30;;;;;;5037709;28;20059;-78
2023/06/12 07:22:39;;;;;;;2.65;1.10;;;20.30;56.40;;;;;;5037473;28;20055;-79
2023/06/12 07:25:05;;;;;;;1.02;0.95;;;20.30;57.10;;;;;;5037429;28;20044;-79
2023/06/12 07:27:31;;;;;;;2.40;1.08;;;20.20;56.60;;;;;;5037509;28;20031;-78
2023/06/12 07:29:57;;;;;;;1.58;1.00;;;20.20;56.70;;;;;;5036419;28;20116;-78
2023/06/12 07:32:22;;;;;;;3.08;0.90;;;20.20;56.90;;;;;;5037706;28;20022;-79
2023/06/12 07:34:48;;;;;;;1.10;1.00;;;20.20;56.90;;;;;;5037405;28;20025;-77
2023/06/12 07:37:14;;;;;;;1.13;0.90;;;20.30;57.00;;;;;;5037449;28;20426;-78
2023/06/12 07:39:39;;;;;;;1.00;0.90;;;20.40;56.90;;;;;;5037393;28;20061;-78
2023/06/12 07:42:06;;;;;;;1.10;1.10;;;20.50;56.70;;;;;;5037159;28;20025;-78
2023/06/12 07:44:31;;;;;;;1.08;1.08;;;20.50;56.60;;;;;;5037264;28;20025;-79
2023/06/12 07:46:57;;;;;;;1.30;1.20;;;20.60;56.60;;;;;;5036962;28;20087;-79
2023/06/12 07:49:23;;;;;;;1.40;1.08;;;20.70;56.60;;;;;;5037631;28;20028;-79
2023/06/12 07:51:48;;;;;;;1.13;1.02;;;20.80;56.50;;;;;;5035802;28;20022;-79
2023/06/12 07:54:14;;;;;;;1.35;1.10;;;20.90;56.40;;;;;;5036708;28;20048;-78
2023/06/12 07:56:40;;;;;;;0.90;0.90;;;20.90;56.20;;;;;;5035703;28;20395;-79
2023/06/12 07:59:10;;;;;;;1.70;1.27;;;21.10;56.20;;;;;;5036562;28;20470;-79
2023/06/12 08:01:36;;;;;;;1.42;1.10;;;21.20;56.10;;;;;;5018919;28;20542;-79
2023/06/12 08:04:05;;;;;;;1.65;1.10;;;21.30;56.10;;;;;;5019185;28;20025;-79
2023/06/12 08:06:34;;;;;;;1.35;1.00;;;21.40;55.90;;;;;;5037125;28;20104;-79
2023/06/12 08:09:00;;;;;;;0.85;0.85;;;21.50;55.80;;;;;;5036523;28;20475;-79
2023/06/12 08:11:26;;;;;;;1.25;1.08;;;21.50;55.50;;;;;;5036742;28;20025;-78
2023/06/12 08:13:52;;;;;;;0.95;0.90;;;21.40;55.40;;;;;;5036516;28;20375;-81
2023/06/12 08:16:20;;;;;;;1.65;1.25;;;21.30;55.50;;;;;;5036820;28;20030;-79
2023/06/12 08:18:46;;;;;;;1.15;1.08;;;21.20;55.70;;;;;;5019378;28;20526;-79
2023/06/12 08:21:12;;;;;;;1.80;1.30;;;21.10;55.70;;;;;;5037387;28;20108;-79
2023/06/12 08:23:37;;;;;;;4.07;1.50;;;21.00;55.90;;;;;;5041201;28;20121;-78
2023/06/12 08:26:08;;;;;;;1.42;1.10;;;20.90;56.00;;;;;;5037422;28;20030;-79
2023/06/12 08:28:35;;;;;;;2.58;1.40;;;20.80;56.80;;;;;;5037051;28;20025;-78
2023/06/12 08:31:01;;;;;;;1.45;1.30;;;20.80;56.40;;;;;;5036941;28;20041;-78
2023/06/12 08:33:30;;;;;;;1.30;1.20;;;20.70;56.40;;;;;;5018638;28;20022;-79
2023/06/12 08:35:58;;;;;;;1.30;1.20;;;20.70;56.40;;;;;;5036482;28;20032;-79
2023/06/12 08:38:24;;;;;;;1.35;1.25;;;20.70;56.50;;;;;;5036492;28;20533;-79
2023/06/12 08:40:53;;;;;;;2.35;1.30;;;20.80;56.60;;;;;;5036504;28;20025;-78
2023/06/12 08:43:19;;;;;;;0.90;0.90;;;20.90;56.50;;;;;;5035930;28;20145;-78
2023/06/12 08:45:51;;;;;;;1.42;1.33;;;21.00;56.40;;;;;;5018551;28;20507;-78
2023/06/12 08:48:18;;;;;;;2.72;1.38;;;21.00;56.20;;;;;;5036337;28;20029;-78
2023/06/12 08:50:45;;;;;;;2.10;1.27;;;21.00;56.20;;;;;;5036173;28;20126;-78
2023/06/12 08:53:11;;;;;;;3.08;1.25;;;21.10;56.20;;;;;;5018426;28;20036;-77
2023/06/12 08:55:39;;;;;;;1.17;1.10;;;21.10;56.20;;;;;;5035622;28;20167;-79
2023/06/12 08:58:09;;;;;;;1.50;1.40;;;21.10;56.20;;;;;;5035766;28;20422;-79
2023/06/12 09:00:35;;;;;;;1.35;1.25;;;21.00;56.10;;;;;;5017948;28;20037;-79
2023/06/12 09:03:04;;;;;;;1.40;1.30;;;21.00;56.20;;;;;;5035658;28;20494;-79
2023/06/12 09:05:35;;;;;;;1.63;1.40;;;21.00;56.30;;;;;;5017919;28;20554;-78
2023/06/12 09:08:05;;;;;;;3.20;1.80;;;20.90;56.30;;;;;;5035712;28;20456;-79
2023/06/12 09:10:31;;;;;;;3.40;1.80;;;20.80;56.30;;;;;;5036056;28;20036;-78
2023/06/12 09:12:58;;;;;;;1.50;1.40;;;20.70;56.50;;;;;;5035724;28;20033;-79
2023/06/12 09:15:24;;;;;;;2.58;1.30;;;20.70;56.70;;;;;;5018034;28;20065;-78
2023/06/12 09:17:54;;;;;;;2.33;1.20;;;20.60;56.80;;;;;;5017662;28;20116;-78
2023/06/12 09:20:26;;;;;;;1.35;1.25;;;20.50;56.90;;;;;;5017645;28;20053;-79
2023/06/12 09:22:53;;;;;;;1.70;1.60;;;20.40;57.10;;;;;;5017649;28;20032;-79
2023/06/12 09:25:36;;;;;;;2.90;1.50;;;20.40;57.20;;;;;;5017865;28;20443;-79
2023/06/12 09:28:05;;;;;;;2.55;1.40;;;20.40;57.90;;;;;;5017856;28;20057;-78
2023/06/12 09:30:31;;;;;;;1.35;1.23;;;20.30;57.30;;;;;;5035542;28;20051;-78
2023/06/12 09:33:00;;;;;;;1.48;1.27;;;20.30;57.40;;;;;;5035130;28;20108;-77
2023/06/12 09:35:25;;;;;;;1.50;1.40;;;20.30;57.40;;;;;;5035366;28;20502;-79
2023/06/12 09:37:51;;;;;;;1.63;1.33;;;20.20;57.30;;;;;;5034160;28;20081;-78
2023/06/12 09:40:17;;;;;;;1.75;1.30;;;20.30;57.40;;;;;;5035123;28;20041;-78
2023/06/12 09:42:45;;;;;;;2.03;1.25;;;20.20;57.40;;;;;;5035222;28;20049;-78
2023/06/12 09:45:20;;;;;;;1.38;1.27;;;20.20;57.60;;;;;;5017183;28;20072;-78
2023/06/12 09:47:48;;;;;;;2.70;1.00;;;20.10;57.60;;;;;;5034859;28;20406;-78
2023/06/12 09:50:25;;;;;;;1.80;1.48;;;20.20;57.70;;;;;;5016985;28;20068;-78
2023/06/12 09:52:54;;;;;;;1.50;1.23;;;20.20;57.70;;;;;;5016681;28;20029;-78
2023/06/12 09:55:20;;;;;;;1.00;1.00;;;20.10;57.70;;;;;;5034943;28;20360;-78
2023/06/12 09:57:49;;;;;;;1.17;1.15;;;20.10;57.80;;;;;;5034827;28;20026;-78
2023/06/12 10:00:16;;;;;;;1.38;1.10;;;20.10;57.90;;;;;;5016580;28;20040;-79
2023/06/12 10:02:53;;;;;;;1.20;1.10;;;20.20;58.00;;;;;;5033987;28;20456;-79
2023/06/12 10:05:31;;;;;;;1.33;1.23;;;20.10;58.00;;;;;;5034845;28;20045;-79
2023/06/12 10:07:59;;;;;;;2.58;1.30;;;20.10;57.90;;;;;;5017499;28;20120;-79
2023/06/12 10:10:26;;;;;;;1.10;1.10;;;20.10;57.90;;;;;;5016860;28;20029;-79
2023/06/12 10:12:53;;;;;;;5.95;1.30;;;20.10;57.90;;;;;;5034150;28;20071;-79
2023/06/12 10:15:19;;;;;;;1.52;1.30;;;20.10;58.00;;;;;;5034752;28;20025;-77
2023/06/12 10:17:47;;;;;;;1.10;1.00;;;20.00;57.90;;;;;;5033494;28;20031;-78
2023/06/12 10:20:14;;;;;;;1.75;1.30;;;20.00;58.00;;;;;;5016746;28;20112;-79
2023/06/12 10:22:40;;;;;;;1.40;1.33;;;20.00;58.10;;;;;;5034758;28;20030;-78
2023/06/12 10:25:08;;;;;;;1.40;1.30;;;20.00;58.20;;;;;;5035556;28;20025;-78
2023/06/12 10:27:36;;;;;;;1.65;1.30;;;20.00;58.10;;;;;;5036133;28;20041;-78
2023/06/12 10:30:03;;;;;;;1.10;1.10;;;20.00;58.10;;;;;;5017079;28;20041;-79
2023/06/12 10:32:32;;;;;;;1.52;1.30;;;20.00;58.10;;;;;;5034499;28;20021;-79
2023/06/12 10:34:59;;;;;;;1.40;1.30;;;20.00;58.10;;;;;;5034489;28;20403;-79
2023/06/12 10:37:38;;;;;;;2.17;1.30;;;19.90;58.10;;;;;;5016627;28;20033;-79
2023/06/12 10:40:17;;;;;;;1.10;1.10;;;19.90;58.30;;;;;;5034846;28;20040;-79
2023/06/12 10:42:53;;;;;;;1.20;1.15;;;19.90;58.40;;;;;;5016263;28;20067;-78
2023/06/12 10:45:25;;;;;;;1.33;1.23;;;19.80;58.30;;;;;;5035561;28;20040;-78
2023/06/12 10:48:05;;;;;;;1.30;1.20;;;19.80;58.40;;;;;;5033687;28;20064;-78
2023/06/12 10:50:31;;;;;;;1.88;1.30;;;19.70;58.50;;;;;;5033976;28;20076;-78
2023/06/12 10:53:01;;;;;;;1.33;1.23;;;19.70;58.60;;;;;;5016613;28;20033;-78
2023/06/12 10:55:26;;;;;;;1.50;1.40;;;19.70;58.80;;;;;;5016207;28;20041;-78
2023/06/12 10:58:03;;;;;;;1.13;1.08;;;19.60;58.80;;;;;;5034124;28;20025;-78
2023/06/12 11:00:35;;;;;;;2.95;1.50;;;19.60;58.90;;;;;;5033895;28;20108;-80
2023/06/12 11:03:14;;;;;;;1.10;1.10;;;19.60;58.80;;;;;;5016086;28;20029;-78
2023/06/12 11:05:51;;;;;;;2.17;1.38;;;19.50;58.90;;;;;;5033638;28;20073;-78
2023/06/12 11:08:17;;;;;;;1.52;1.20;;;19.50;59.00;;;;;;5016066;28;20460;-79
2023/06/12 11:10:44;;;;;;;1.38;1.27;;;19.50;59.00;;;;;;5015940;28;20495;-77
2023/06/12 11:13:10;;;;;;;1.73;1.30;;;19.50;59.70;;;;;;5015677;28;20040;-77
2023/06/12 11:15:48;;;;;;;2.95;1.50;;;19.50;59.10;;;;;;5033521;28;20410;-78
2023/06/12 11:18:14;;;;;;;2.42;1.45;;;19.50;59.20;;;;;;5015724;28;20116;-77
2023/06/12 11:20:41;;;;;;;2.90;1.40;;;19.50;59.20;;;;;;5034235;28;20472;-79
2023/06/12 11:23:07;;;;;;;1.60;1.30;;;19.50;59.40;;;;;;5015988;28;20116;-79
2023/06/12 11:25:34;;;;;;;1.73;1.48;;;19.50;59.40;;;;;;5033744;28;20121;-79
2023/06/12 11:28:00;;;;;;;1.38;1.23;;;19.50;59.50;;;;;;5016038;28;20478;-79
2023/06/12 11:30:26;;;;;;;1.38;1.25;;;19.50;59.60;;;;;;5016052;28;20053;-77
2023/06/12 11:32:51;;;;;;;1.38;1.27;;;19.50;59.80;;;;;;5015929;28;20117;-78
2023/06/12 11:35:17;;;;;;;1.40;1.30;;;19.50;60.00;;;;;;5033516;28;20029;-78
2023/06/12 11:37:43;;;;;;;3.10;1.45;;;19.50;60.10;;;;;;5033570;28;20026;-78
2023/06/12 11:40:12;;;;;;;1.60;1.50;;;19.50;60.30;;;;;;5033321;28;20029;-79
2023/06/12 11:42:42;;;;;;;1.50;1.40;;;19.60;60.50;;;;;;5015925;28;20033;-79
2023/06/12 11:45:10;;;;;;;2.28;1.40;;;19.60;60.60;;;;;;5015710;28;20021;-79
2023/06/12 11:47:39;;;;;;;1.48;1.38;;;19.70;60.80;;;;;;5015577;28;20035;-79
2023/06/12 11:50:07;;;;;;;1.33;1.23;;;19.80;60.80;;;;;;5033618;28;20083;-79
2023/06/12 11:52:35;;;;;;;1.35;1.27;;;19.80;60.90;;;;;;5032245;28;20052;-79
2023/06/12 11:55:06;;;;;;;1.90;1.80;;;19.80;61.00;;;;;;5033631;28;20048;-80
2023/06/12 11:57:32;;;;;;;1.45;1.38;;;19.80;61.10;;;;;;5033826;28;20029;-78
2023/06/12 11:59:59;;;;;;;1.67;1.58;;;19.90;61.30;;;;;;5034661;28;20029;-78
2023/06/12 12:02:51;;;;;;;1.60;1.50;;;19.90;61.40;;;;;;5037308;28;20039;-80
2023/06/12 12:05:20;;;;;;;1.50;1.40;;;20.00;62.10;;;;;;5019111;28;20084;-78
2023/06/12 12:07:52;;;;;;;1.80;1.70;;;20.00;61.50;;;;;;5019084;28;20115;-78
2023/06/12 12:10:18;;;;;;;1.60;1.50;;;20.00;61.50;;;;;;5036904;28;20030;-78
2023/06/12 12:13:04;;;;;;;1.83;1.55;;;20.10;61.70;;;;;;5035281;28;20028;-78
2023/06/12 12:15:33;;;;;;;1.60;1.50;;;20.10;62.00;;;;;;5018346;28;20037;-78
2023/06/12 12:17:59;;;;;;;3.80;1.55;;;20.20;61.80;;;;;;5018930;28;20033;-78
2023/06/12 12:20:26;;;;;;;1.60;1.50;;;20.10;61.80;;;;;;5036745;28;20083;-78
2023/06/12 12:22:57;;;;;;;1.90;1.80;;;20.10;62.00;;;;;;5036946;28;20026;-78
2023/06/12 12:25:33;;;;;;;1.52;1.42;;;20.10;62.10;;;;;;5036523;28;20025;-79
2023/06/12 12:28:01;;;;;;;1.80;1.70;;;20.10;62.20;;;;;;5040538;28;20041;-79
2023/06/12 12:30:27;;;;;;;1.73;1.63;;;20.00;62.30;;;;;;5037823;28;20486;-79
2023/06/12 12:32:54;;;;;;;2.20;1.98;;;20.00;62.40;;;;;;5035935;28;20034;-78
2023/06/12 12:35:21;;;;;;;1.88;1.70;;;20.00;62.60;;;;;;5018826;28;20120;-79
2023/06/12 12:37:48;;;;;;;1.60;1.50;;;20.00;63.40;;;;;;5018433;28;20533;-78
2023/06/12 12:40:14;;;;;;;1.95;1.85;;;19.90;62.90;;;;;;5018562;28;20510;-78
2023/06/12 12:42:42;;;;;;;1.95;1.80;;;19.90;62.90;;;;;;5035696;28;20038;-79
2023/06/12 12:45:10;;;;;;;1.73;1.60;;;19.90;63.00;;;;;;5036341;28;20084;-79
2023/06/12 12:47:40;;;;;;;2.00;1.80;;;19.80;63.00;;;;;;5035024;28;20049;-78
2023/06/12 12:50:06;;;;;;;2.00;1.90;;;19.80;63.20;;;;;;5018241;28;20029;-76
2023/06/12 12:52:32;;;;;;;1.90;1.80;;;19.70;63.30;;;;;;5007763;28;20096;-83
2023/06/12 12:54:58;;;;;;;1.75;1.65;;;19.70;63.40;;;;;;5015212;28;20036;-82
2023/06/12 12:57:24;;;;;;;1.95;1.85;;;19.70;63.50;;;;;;5032202;28;20373;-83
2023/06/12 12:59:50;;;;;;;1.70;1.60;;;19.80;63.60;;;;;;5015172;28;20018;-83
2023/06/12 13:02:16;;;;;;;2.25;1.80;;;19.80;63.60;;;;;;5035669;28;20030;-84
2023/06/12 13:04:42;;;;;;;1.80;1.70;;;19.80;63.40;;;;;;5018462;28;20024;-82
2023/06/12 13:07:08;;;;;;;2.13;2.00;;;19.80;63.40;;;;;;5014764;28;20146;-82
2023/06/12 13:09:34;;;;;;;1.77;1.67;;;19.70;63.40;;;;;;5035695;28;20045;-84
2023/06/12 13:12:00;;;;;;;1.98;1.88;;;19.70;63.50;;;;;;5034531;28;20487;-83
2023/06/12 13:14:26;;;;;;;2.05;1.88;;;19.60;63.60;;;;;;5038131;28;20430;-82
2023/06/12 13:16:52;;;;;;;2.00;1.90;;;19.60;63.60;;;;;;5035913;28;20034;-83
2023/06/12 13:19:18;;;;;;;1.80;1.70;;;19.50;63.70;;;;;;5035674;28;20034;-82
2023/06/12 13:21:43;;;;;;;1.80;1.70;;;19.50;63.90;;;;;;5035117;28;20025;-86
2023/06/12 13:24:09;;;;;;;1.77;1.60;;;19.50;63.90;;;;;;5017690;28;20384;-85
2023/06/12 13:26:35;;;;;;;1.60;1.50;;;19.50;63.90;;;;;;5035071;28;20037;-84
2023/06/12 13:29:02;;;;;;;2.33;2.10;;;19.50;64.00;;;;;;5035645;28;20030;-83
2023/06/12 13:31:28;;;;;;;2.17;1.98;;;19.50;64.00;;;;;;5045330;28;20065;-82
2023/06/12 13:33:53;;;;;;;2.15;1.90;;;19.50;64.10;;;;;;5046251;28;20033;-82
2023/06/12 13:36:19;;;;;;;2.00;1.90;;;19.40;64.10;;;;;;5043053;28;20537;-82
2023/06/12 13:38:46;;;;;;;3.55;2.13;;;19.50;64.20;;;;;;5037123;28;20052;-84
2023/06/12 13:41:12;;;;;;;2.22;2.00;;;19.40;64.20;;;;;;5035209;28;20049;-82
2023/06/12 13:43:39;;;;;;;2.20;1.70;;;19.40;64.30;;;;;;5017691;28;20068;-84
2023/06/12 13:46:05;;;;;;;1.90;1.75;;;19.30;64.40;;;;;;5034808;28;20466;-84
2023/06/12 13:48:31;;;;;;;2.10;2.00;;;19.30;64.50;;;;;;5034912;28;20395;-84
2023/06/12 13:50:58;;;;;;;2.08;1.90;;;19.30;64.60;;;;;;5035167;28;20062;-83
2023/06/12 13:53:27;;;;;;;2.00;1.90;;;19.30;64.80;;;;;;5033457;28;20083;-82
2023/06/12 13:55:53;;;;;;;1.77;1.67;;;19.30;64.80;;;;;;5035077;28;20128;-83
2023/06/12 13:58:19;;;;;;;1.50;1.40;;;19.30;64.80;;;;;;5034074;28;20079;-84
2023/06/12 14:00:45;;;;;;;1.98;1.88;;;19.30;64.80;;;;;;5015570;28;20040;-86
2023/06/12 14:03:11;;;;;;;1.67;1.58;;;19.30;64.80;;;;;;5034063;28;20555;-84
2023/06/12 14:05:36;;;;;;;1.85;1.75;;;19.20;64.80;;;;;;5009618;28;20136;-83
2023/06/12 14:08:02;;;;;;;1.60;1.50;;;19.20;64.90;;;;;;5014057;28;20111;-82
2023/06/12 14:10:29;;;;;;;2.10;2.00;;;19.10;64.90;;;;;;4996828;28;20076;-85
2023/06/12 14:12:54;;;;;;;2.53;1.88;;;19.10;65.00;;;;;;5015247;28;20496;-83
2023/06/12 14:15:20;;;;;;;1.70;1.60;;;19.10;65.10;;;;;;5014910;28;20109;-84
2023/06/12 14:17:46;;;;;;;1.75;1.63;;;19.00;65.10;;;;;;5013329;28;20022;-83
2023/06/12 14:20:12;;;;;;;1.85;1.75;;;19.00;65.30;;;;;;5014099;28;20022;-83
2023/06/12 14:22:46;;;;;;;1.75;1.65;;;19.00;65.40;;;;;;5013628;28;20029;-85
2023/06/12 14:25:12;;;;;;;1.67;1.58;;;19.00;65.50;;;;;;4996861;28;20033;-84
2023/06/12 14:27:38;;;;;;;1.60;1.50;;;18.90;65.60;;;;;;5014832;28;20042;-83
2023/06/12 14:30:05;;;;;;;1.85;1.75;;;18.90;65.70;;;;;;5025982;28;20022;-85
2023/06/12 14:32:31;;;;;;;1.60;1.50;;;19.00;65.80;;;;;;5018555;28;20109;-84
2023/06/12 14:34:56;;;;;;;1.80;1.70;;;19.00;65.80;;;;;;5014743;28;20056;-79
2023/06/12 14:37:22;;;;;;;3.25;1.90;;;18.90;65.80;;;;;;4999589;28;20029;-79
2023/06/12 14:39:47;;;;;;;2.00;1.80;;;18.90;66.30;;;;;;5014813;28;20056;-82
2023/06/12 14:42:13;;;;;;;1.80;1.52;;;18.90;65.80;;;;;;5016581;28;20029;-80
2023/06/12 14:44:39;;;;;;;2.00;1.80;;;18.80;65.90;;;;;;5018035;28;20096;-80
2023/06/12 14:47:05;;;;;;;2.03;1.92;;;18.70;66.00;;;;;;5016708;28;20038;-80
2023/06/12 14:49:30;;;;;;;2.08;1.80;;;18.70;66.20;;;;;;5014714;28;20036;-81
2023/06/12 14:51:56;;;;;;;1.65;1.55;;;18.60;66.30;;;;;;5012996;28;20061;-81
2023/06/12 14:54:21;;;;;;;1.60;1.50;;;18.60;66.40;;;;;;4997314;28;20034;-81
2023/06/12 14:56:47;;;;;;;1.60;1.50;;;18.60;66.50;;;;;;4997140;28;20092;-81
2023/06/12 14:59:13;;;;;;;2.20;2.00;;;18.60;66.50;;;;;;5014872;28;20030;-82
2023/06/12 15:01:38;;;;;;;2.10;1.90;;;18.60;66.50;;;;;;4997029;28;20065;-81
2023/06/12 15:04:05;;;;;;;2.05;1.63;;;18.60;66.50;;;;;;4996832;28;20061;-81
2023/06/12 15:06:31;;;;;;;2.20;2.00;;;18.60;66.70;;;;;;5030347;28;20136;-82
2023/06/12 15:08:57;;;;;;;2.40;2.00;;;18.60;66.70;;;;;;5033998;28;20037;-81
2023/06/12 15:11:22;;;;;;;2.25;1.88;;;18.50;66.70;;;;;;5033709;28;20025;-81
2023/06/12 15:13:48;;;;;;;2.00;1.80;;;18.50;66.90;;;;;;5034082;28;20025;-82
2023/06/12 15:16:14;;;;;;;2.13;1.88;;;18.50;67.00;;;;;;5034007;28;20033;-81
2023/06/12 15:18:39;;;;;;;2.58;2.17;;;18.50;67.00;;;;;;5033019;28;20052;-81
2023/06/12 15:21:05;;;;;;;2.17;1.95;;;18.50;67.10;;;;;;5032640;28;20029;-82
2023/06/12 15:23:31;;;;;;;2.15;1.95;;;18.50;67.20;;;;;;5033961;28;20033;-81
2023/06/12 15:25:57;;;;;;;1.90;1.80;;;18.50;67.40;;;;;;5033590;28;20449;-81
2023/06/12 15:28:22;;;;;;;1.92;1.83;;;18.40;67.30;;;;;;5033195;28;20029;-82
2023/06/12 15:30:48;;;;;;;2.08;1.90;;;18.40;67.30;;;;;;5033305;28;20057;-81
2023/06/12 15:33:13;;;;;;;1.77;1.67;;;18.40;67.40;;;;;;5032006;28;20026;-81
2023/06/12 15:35:39;;;;;;;3.45;2.00;;;18.40;67.40;;;;;;5018596;28;20071;-82
2023/06/12 15:38:33;;;;;;;2.55;1.73;;;18.30;67.40;;;;;;5036080;28;20032;-81
2023/06/12 15:40:59;;;;;;;1.83;1.73;;;18.30;67.60;;;;;;5037210;28;20029;-82
2023/06/12 15:43:25;;;;;;;1.77;1.67;;;18.30;67.40;;;;;;5019674;28;20037;-81
2023/06/12 15:45:55;;;;;;;2.28;1.75;;;18.30;67.40;;;;;;5037338;28;20037;-82
2023/06/12 15:48:27;;;;;;;2.35;1.70;;;18.30;67.50;;;;;;5037200;28;20048;-82
2023/06/12 15:50:54;;;;;;;2.78;2.00;;;18.30;67.40;;;;;;5037442;28;20027;-81
2023/06/12 15:53:19;;;;;;;1.80;1.70;;;18.20;67.30;;;;;;5039059;28;20033;-80
2023/06/12 15:55:47;;;;;;;3.42;2.17;;;18.30;67.40;;;;;;5038408;28;20041;-81
2023/06/12 15:58:12;;;;;;;2.22;2.03;;;18.20;67.40;;;;;;5039093;28;20036;-80
2023/06/12 16:00:38;;;;;;;2.40;1.70;;;18.20;67.30;;;;;;5037036;28;20026;-80
2023/06/12 16:03:04;;;;;;;2.22;2.00;;;18.20;67.20;;;;;;5037147;28;20064;-81
2023/06/12 16:05:29;;;;;;;2.25;1.85;;;18.20;67.30;;;;;;5036872;28;20530;-81
2023/06/12 16:07:55;;;;;;;1.85;1.75;;;18.20;67.30;;;;;;5037220;28;20030;-81
2023/06/12 16:10:21;;;;;;;2.10;1.90;;;18.20;67.20;;;;;;5036831;28;20025;-80
2023/06/12 16:12:46;;;;;;;2.42;1.77;;;18.20;67.10;;;;;;5036889;28;20052;-81
2023/06/12 16:15:12;;;;;;;3.40;1.80;;;18.10;67.00;;;;;;5036864;28;20048;-82
2023/06/12 16:17:38;;;;;;;2.75;2.10;;;18.20;67.10;;;;;;5037187;28;20088;-81
2023/06/12 16:20:04;;;;;;;2.10;1.95;;;18.10;67.00;;;;;;5036876;28;20032;-81
2023/06/12 16:22:29;;;;;;;1.80;1.70;;;18.20;67.10;;;;;;5036473;28;20026;-81
2023/06/12 16:24:55;;;;;;;2.72;1.90;;;18.20;67.20;;;;;;5036447;28;20022;-81
2023/06/12 16:27:21;;;;;;;2.15;1.95;;;18.20;67.10;;;;;;5036329;28;20036;-81
2023/06/12 16:29:46;;;;;;;1.65;1.52;;;18.20;67.00;;;;;;5036150;28;20108;-83
2023/06/12 16:32:12;;;;;;;2.55;1.70;;;18.20;67.00;;;;;;5036382;28;20044;-81
2023/06/12 16:34:38;;;;;;;2.05;1.85;;;18.20;67.00;;;;;;5038871;28;20371;-81
2023/06/12 16:37:03;;;;;;;2.10;1.90;;;18.30;67.00;;;;;;5037008;28;20022;-81
2023/06/12 16:39:30;;;;;;;1.58;1.48;;;18.30;66.90;;;;;;5036670;28;20030;-81
2023/06/12 16:41:56;;;;;;;1.50;1.40;;;18.30;66.90;;;;;;5036406;28;20482;-82
2023/06/12 16:44:22;;;;;;;2.40;1.45;;;18.30;66.80;;;;;;5018496;28;20025;-82
2023/06/12 16:46:48;;;;;;;1.77;1.67;;;18.30;66.80;;;;;;5036044;28;20041;-81
2023/06/12 16:49:13;;;;;;;2.20;2.00;;;18.30;66.80;;;;;;5018550;28;20029;-81
2023/06/12 16:51:39;;;;;;;2.45;1.80;;;18.30;66.80;;;;;;5035919;28;20033;-81
2023/06/12 16:54:06;;;;;;;2.20;2.00;;;18.30;66.80;;;;;;5036032;28;20033;-81
2023/06/12 16:56:32;;;;;;;1.83;1.70;;;18.30;66.80;;;;;;5035981;28;20391;-81
2023/06/12 16:58:58;;;;;;;3.53;1.83;;;18.40;66.90;;;;;;5037308;28;20341;-81
2023/06/12 17:01:23;;;;;;;3.80;1.70;;;18.30;66.80;;;;;;5037042;28;20083;-81
2023/06/12 17:03:49;;;;;;;2.25;1.83;;;18.30;66.80;;;;;;5035853;28;20033;-81
2023/06/12 17:06:15;;;;;;;2.03;1.63;;;18.30;66.70;;;;;;5035651;28;20102;-81
2023/06/12 17:08:41;;;;;;;1.75;1.65;;;18.30;66.70;;;;;;5036053;28;20033;-82
2023/06/12 17:11:09;;;;;;;1.52;1.42;;;18.30;66.70;;;;;;5035729;28;20026;-81
2023/06/12 17:13:36;;;;;;;3.25;1.80;;;18.30;66.70;;;;;;5035378;28;20041;-82
2023/06/12 17:16:02;;;;;;;2.50;1.77;;;18.30;66.70;;;;;;5036102;28;20029;-81
2023/06/12 17:18:28;;;;;;;1.85;1.70;;;18.30;66.70;;;;;;5036157;28;20018;-81
2023/06/12 17:20:54;;;;;;;1.90;1.80;;;18.30;66.70;;;;;;5035633;28;20034;-81
2023/06/12 17:23:20;;;;;;;3.38;2.88;;;18.40;66.70;;;;;;5037163;28;20026;-81
2023/06/12 17:25:46;;;;;;;2.83;2.40;;;18.30;66.60;;;;;;5035382;28;20080;-82
2023/06/12 17:28:11;;;;;;;2.40;2.17;;;18.30;66.60;;;;;;5035231;28;20061;-80
2023/06/12 17:30:39;;;;;;;3.13;2.60;;;18.40;66.60;;;;;;5034716;28;20471;-84
2023/06/12 17:33:05;;;;;;;3.65;2.45;;;18.40;66.60;;;;;;5018525;28;20086;-77
2023/06/12 17:35:31;;;;;;;2.88;2.63;;;18.40;66.60;;;;;;5030779;28;20045;-80
2023/06/12 17:37:57;;;;;;;2.78;2.50;;;18.40;66.50;;;;;;5033893;28;20439;-82
2023/06/12 17:40:23;;;;;;;3.30;2.95;;;18.40;66.50;;;;;;5032441;28;20060;-81
2023/06/12 17:42:48;;;;;;;3.33;3.03;;;18.40;66.50;;;;;;5033004;28;20051;-80
2023/06/12 17:45:14;;;;;;;2.42;2.22;;;18.40;66.40;;;;;;5033744;28;20026;-81
2023/06/12 17:47:40;;;;;;;4.07;2.50;;;18.40;66.30;;;;;;5033527;28;20021;-81
2023/06/12 17:50:06;;;;;;;3.17;2.72;;;18.40;66.20;;;;;;5039037;28;20033;-82
2023/06/12 17:52:32;;;;;;;3.35;2.40;;;18.40;66.20;;;;;;5038977;28;20040;-82
2023/06/12 17:54:57;;;;;;;2.60;2.40;;;18.40;66.20;;;;;;5033576;28;20022;-81
2023/06/12 17:57:23;;;;;;;3.35;2.95;;;18.40;66.20;;;;;;5032072;28;20044;-82
2023/06/12 17:59:49;;;;;;;2.40;2.20;;;18.40;66.20;;;;;;5033624;28;20021;-80
2023/06/12 18:02:15;;;;;;;3.17;2.90;;;18.40;66.70;;;;;;5051418;28;20116;-80
2023/06/12 18:04:41;;;;;;;3.15;2.80;;;18.40;66.10;;;;;;5053527;28;20112;-82
2023/06/12 18:07:07;;;;;;;4.20;3.60;;;18.40;66.10;;;;;;5051523;28;20044;-81
2023/06/12 18:09:32;;;;;;;3.40;2.95;;;18.40;66.10;;;;;;5053923;28;20033;-81
2023/06/12 18:11:58;;;;;;;3.53;3.22;;;18.50;66.10;;;;;;5054811;28;20033;-83
2023/06/12 18:14:24;;;;;;;3.80;3.00;;;18.40;66.10;;;;;;5054126;28;20025;-81
2023/06/12 18:16:49;;;;;;;3.67;3.30;;;18.40;66.10;;;;;;5053256;28;20029;-80
2023/06/12 18:19:15;;;;;;;3.45;2.90;;;18.40;66.10;;;;;;5053349;28;20501;-78
2023/06/12 18:21:43;;;;;;;2.80;2.60;;;18.40;66.10;;;;;;5053524;28;20032;-80
2023/06/12 18:24:09;;;;;;;3.92;3.17;;;18.50;66.20;;;;;;5052361;28;20426;-81
2023/06/12 18:26:34;;;;;;;3.00;2.70;;;18.50;66.20;;;;;;5024076;28;20037;-80
2023/06/12 18:29:00;;;;;;;3.17;2.83;;;18.50;66.20;;;;;;5033241;28;20045;-80
2023/06/12 18:31:26;;;;;;;3.75;2.88;;;18.50;66.20;;;;;;5029793;28;20032;-81
2023/06/12 18:33:52;;;;;;;3.28;2.65;;;18.50;66.10;;;;;;5010063;28;20025;-81
2023/06/12 18:36:18;;;;;;;3.13;2.83;;;18.50;66.10;;;;;;5034331;28;20029;-81
2023/06/12 18:38:45;;;;;;;3.60;2.90;;;18.40;66.10;;;;;;5034063;28;20081;-81
2023/06/12 18:41:20;;;;;;;4.30;2.95;;;18.50;66.20;;;;;;5033189;28;20065;-80
2023/06/12 18:43:45;;;;;;;3.50;3.05;;;18.40;66.20;;;;;;5033055;28;20114;-89
2023/06/12 18:46:14;;;;;;;3.92;2.90;;;18.40;66.20;;;;;;5015192;28;20488;-82
2023/06/12 18:48:40;;;;;;;4.82;2.95;;;18.40;66.30;;;;;;5032976;28;20105;-80
2023/06/12 18:51:06;;;;;;;5.43;3.20;;;18.40;66.20;;;;;;5033240;28;20479;-80